Time;durP1;ratioP1;P1;durP2;ratioP2;P2;SDS_P1;SDS_P2;PMS_P1;PMS_P2;Temp;Humidity;BMP_temperature;BMP_pressure;BME280_temperature;BME280_humidity;BME280_pressure;Samples;Min_cycle;Max_cycle;Signal;HPM_P1;HPM_P2
2023/06/25 00:00:53;;;;;;;17.25;9.05;;;;;;;21.40;84.18;95269.03;5123277;27;20039;-78
2023/06/25 00:03:19;;;;;;;14.63;8.45;;;;;;;21.62;83.21;95290.13;5126663;27;20095;-77
2023/06/25 00:05:44;;;;;;;19.90;8.98;;;;;;;21.74;83.23;95292.03;5134013;27;20098;-77
2023/06/25 00:08:10;;;;;;;12.75;8.02;;;;;;;21.68;82.70;95280.66;5133713;27;20477;-77
2023/06/25 00:10:35;;;;;;;15.55;8.43;;;;;;;21.60;81.65;95275.38;5133882;27;20047;-77
2023/06/25 00:13:01;;;;;;;15.18;8.40;;;;;;;21.50;80.48;95295.56;5152385;27;20420;-77
2023/06/25 00:15:27;;;;;;;17.90;9.70;;;;;;;21.58;81.30;95293.84;5152603;27;20054;-77
2023/06/25 00:17:53;;;;;;;20.38;8.40;;;;;;;21.59;81.35;95285.41;5136710;27;20508;-77
2023/06/25 00:20:19;;;;;;;23.00;9.50;;;;;;;21.43;82.03;95279.94;5143670;27;20050;-77
2023/06/25 00:22:45;;;;;;;19.17;9.45;;;;;;;21.64;82.74;95300.59;5133374;27;20019;-77
2023/06/25 00:25:14;;;;;;;19.35;9.30;;;;;;;21.53;82.80;95268.66;5152498;27;20577;-77
2023/06/25 00:27:41;;;;;;;13.73;8.20;;;;;;;21.31;82.95;95238.69;5133052;27;20393;-77
2023/06/25 00:30:07;;;;;;;14.60;8.48;;;;;;;21.54;81.26;95278.34;5152260;27;20034;-77
2023/06/25 00:32:33;;;;;;;17.13;7.78;;;;;;;21.26;81.26;95260.50;5129939;27;20023;-77
2023/06/25 00:35:00;;;;;;;15.40;9.07;;;;;;;21.08;82.00;95233.75;5117628;27;20106;-77
2023/06/25 00:37:26;;;;;;;13.35;7.55;;;;;;;21.49;82.13;95281.28;5151474;27;20042;-77
2023/06/25 00:39:51;;;;;;;12.15;7.95;;;;;;;21.40;82.78;95269.03;5152355;27;20033;-77
2023/06/25 00:42:17;;;;;;;13.63;7.93;;;;;;;21.06;81.83;95254.84;5133442;27;20026;-77
2023/06/25 00:44:43;;;;;;;15.38;7.85;;;;;;;21.21;82.38;95276.94;5132999;27;20123;-77
2023/06/25 00:47:12;;;;;;;16.65;7.30;;;;;;;20.94;82.64;95257.56;5151857;27;20015;-77
2023/06/25 00:49:45;;;;;;;17.42;8.52;;;;;;;21.05;83.22;95268.69;5132629;27;20121;-77
2023/06/25 00:52:12;;;;;;;16.83;7.65;;;;;;;20.78;82.29;95262.03;5131275;27;20058;-77
2023/06/25 00:54:43;;;;;;;16.55;8.35;;;;;;;20.50;84.66;95191.06;5145130;27;20134;-77
2023/06/25 00:57:09;;;;;;;20.30;8.85;;;;;;;20.93;85.85;95261.38;5132879;27;20027;-76
2023/06/25 00:59:39;;;;;;;13.93;8.02;;;;;;;20.66;84.20;95256.66;5128947;27;20103;-77
2023/06/25 01:02:38;;;;;;;19.33;8.45;;;;;;;20.65;85.70;95257.78;5128484;27;20454;-77
2023/06/25 01:05:12;;;;;;;18.35;7.80;;;;;;;20.20;85.47;95233.53;5127783;27;20552;-77
2023/06/25 01:07:45;;;;;;;14.68;8.85;;;;;;;20.40;86.25;95254.25;5129361;27;20111;-77
2023/06/25 01:10:12;;;;;;;12.98;8.43;;;;;;;20.45;86.01;95242.47;5130430;27;20035;-77
2023/06/25 01:12:38;;;;;;;13.20;8.55;;;;;;;19.92;87.10;95261.00;5137701;27;20051;-77
2023/06/25 01:15:04;;;;;;;18.20;9.25;;;;;;;20.10;87.15;95247.41;5146015;27;20115;-77
2023/06/25 01:17:30;;;;;;;13.82;9.13;;;;;;;19.96;87.32;95210.00;5132444;27;20416;-77
2023/06/25 01:19:56;;;;;;;15.93;9.30;;;;;;;20.49;87.69;95284.56;5151122;27;20111;-77
2023/06/25 01:22:32;;;;;;;15.00;8.38;;;;;;;20.41;87.07;95270.06;5151646;27;20029;-77
2023/06/25 01:24:58;;;;;;;16.08;8.00;;;;;;;20.39;85.66;95275.00;5132609;27;20050;-77
2023/06/25 01:27:23;;;;;;;12.05;6.65;;;;;;;20.31;84.94;95292.00;5132611;27;20050;-77
2023/06/25 01:29:50;;;;;;;18.15;6.97;;;;;;;19.99;84.58;95290.06;5132772;27;20026;-77
2023/06/25 01:32:19;;;;;;;13.48;6.75;;;;;;;19.76;87.13;95294.25;5131887;27;20412;-77
2023/06/25 01:34:45;;;;;;;15.27;7.60;;;;;;;19.61;86.96;95285.63;5132609;27;20035;-77
2023/06/25 01:37:11;;;;;;;21.13;7.50;;;;;;;19.51;86.91;95299.47;5151410;27;20023;-77
2023/06/25 01:39:37;;;;;;;17.15;7.32;;;;;;;19.61;88.06;95287.53;5131950;27;20050;-77
2023/06/25 01:42:03;;;;;;;11.02;6.80;;;;;;;19.56;88.29;95269.69;5131718;27;20791;-77
2023/06/25 01:44:31;;;;;;;14.75;6.65;;;;;;;19.51;87.35;95302.19;5150855;27;20137;-77
2023/06/25 01:46:57;;;;;;;19.58;7.95;;;;;;;19.57;88.52;95302.75;5132371;27;20412;-77
2023/06/25 01:49:23;;;;;;;19.17;7.55;;;;;;;19.34;88.14;95280.72;5132483;27;20026;-77
2023/06/25 01:51:49;;;;;;;17.40;7.32;;;;;;;19.27;87.00;95289.31;5150790;27;20030;-77
2023/06/25 01:54:15;;;;;;;21.23;8.18;;;;;;;19.27;89.44;95278.56;5117946;28;20035;-77
2023/06/25 01:56:43;;;;;;;16.45;6.53;;;;;;;18.87;87.28;95231.66;5143753;27;20055;-75
2023/06/25 01:59:10;;;;;;;12.80;6.93;;;;;;;19.23;88.00;95279.53;5132536;27;20051;-77
2023/06/25 02:01:35;;;;;;;11.00;6.55;;;;;;;19.21;87.05;95297.91;5131857;27;20548;-77
2023/06/25 02:04:01;;;;;;;14.77;7.47;;;;;;;19.37;87.04;95290.84;5132370;27;20106;-77
2023/06/25 02:06:26;;;;;;;20.95;8.65;;;;;;;19.40;88.05;95284.81;5150786;27;20099;-77
2023/06/25 02:08:52;;;;;;;19.65;9.63;;;;;;;19.09;87.21;95274.38;5132205;27;20027;-77
2023/06/25 02:11:18;;;;;;;17.40;8.70;;;;;;;19.19;87.47;95290.16;5150354;27;20097;-77
2023/06/25 02:13:44;;;;;;;21.15;9.38;;;;;;;19.10;87.98;95280.56;5151181;27;20477;-76
2023/06/25 02:16:09;;;;;;;20.20;10.93;;;;;;;18.49;88.61;95205.56;5149509;27;20086;-77
2023/06/25 02:18:36;;;;;;;25.35;11.20;;;;;;;18.94;88.73;95271.47;5128709;28;20066;-77
2023/06/25 02:21:01;;;;;;;22.00;12.32;;;;;;;18.76;89.44;95263.50;5128929;27;20023;-77
2023/06/25 02:23:27;;;;;;;23.95;12.25;;;;;;;18.89;89.40;95302.00;5141399;27;20083;-77
2023/06/25 02:25:52;;;;;;;19.55;12.20;;;;;;;18.93;89.82;95302.13;5128566;28;20031;-77
2023/06/25 02:28:18;;;;;;;29.92;14.23;;;;;;;18.68;90.40;95261.63;5127277;28;20038;-77
2023/06/25 02:30:44;;;;;;;27.33;14.73;;;;;;;18.81;91.61;95270.56;5124208;28;20719;-77
2023/06/25 02:33:09;;;;;;;25.23;14.35;;;;;;;18.63;91.73;95243.00;5128079;28;20540;-77
2023/06/25 02:35:35;;;;;;;26.58;14.18;;;;;;;18.74;91.30;95246.91;5128590;28;20062;-77
2023/06/25 02:38:00;;;;;;;23.40;13.63;;;;;;;18.95;90.77;95292.63;5128521;28;20069;-77
2023/06/25 02:40:28;;;;;;;26.55;13.57;;;;;;;19.02;90.86;95305.56;5128186;28;20095;-77
2023/06/25 02:42:55;;;;;;;29.50;13.60;;;;;;;18.78;90.58;95265.84;5123291;28;20088;-77
2023/06/25 02:45:20;;;;;;;28.73;13.30;;;;;;;18.84;92.41;95273.38;5150023;27;20038;-77
2023/06/25 02:47:46;;;;;;;22.50;14.60;;;;;;;18.99;92.08;95276.66;5150546;27;20022;-77
2023/06/25 02:50:11;;;;;;;30.35;13.52;;;;;;;19.02;91.63;95292.13;5150832;27;20124;-77
2023/06/25 02:52:37;;;;;;;21.67;12.13;;;;;;;18.68;91.00;95266.22;5150883;27;20037;-77
2023/06/25 02:55:03;;;;;;;24.90;13.23;;;;;;;18.73;91.68;95284.84;5154177;27;20041;-77
2023/06/25 02:57:29;;;;;;;25.13;12.60;;;;;;;18.70;92.83;95266.66;5135501;27;20041;-77
2023/06/25 02:59:58;;;;;;;23.48;12.20;;;;;;;18.60;92.64;95283.94;5135451;27;20026;-77
2023/06/25 03:02:24;;;;;;;22.73;12.32;;;;;;;18.68;92.78;95309.19;5141188;27;20084;-77
2023/06/25 03:04:50;;;;;;;24.15;13.93;;;;;;;18.83;94.07;95306.78;5122438;27;20065;-77
2023/06/25 03:07:16;;;;;;;22.15;11.60;;;;;;;18.42;92.04;95269.75;5128456;27;20030;-77
2023/06/25 03:09:42;;;;;;;29.77;13.23;;;;;;;18.33;94.34;95270.84;5135507;27;20489;-77
2023/06/25 03:12:08;;;;;;;22.48;12.48;;;;;;;18.56;93.92;95300.97;5153043;27;20057;-77
2023/06/25 03:14:34;;;;;;;25.40;11.43;;;;;;;18.55;93.24;95297.50;5135057;27;20119;-77
2023/06/25 03:17:00;;;;;;;24.48;12.52;;;;;;;18.57;93.89;95307.94;5153578;27;20084;-77
2023/06/25 03:19:25;;;;;;;20.63;12.57;;;;;;;18.57;94.66;95291.84;5154065;27;20140;-77
2023/06/25 03:21:50;;;;;;;21.02;11.90;;;;;;;18.45;92.54;95287.13;5153580;27;20031;-77
2023/06/25 03:24:16;;;;;;;25.23;12.52;;;;;;;18.48;94.24;95279.19;5134411;27;20022;-77
2023/06/25 03:26:41;;;;;;;21.65;11.70;;;;;;;18.43;94.51;95252.53;5153271;27;20143;-77
2023/06/25 03:29:07;;;;;;;23.00;12.40;;;;;;;18.38;94.59;95263.44;5153549;27;20353;-77
2023/06/25 03:31:32;;;;;;;21.45;12.30;;;;;;;18.73;94.98;95303.63;5135141;27;20041;-77
2023/06/25 03:33:58;;;;;;;28.17;13.93;;;;;;;18.67;95.93;95316.47;5125957;27;20111;-76
2023/06/25 03:36:25;;;;;;;32.13;15.02;;;;;;;18.10;96.15;95235.38;5132207;27;20114;-75
2023/06/25 03:38:50;;;;;;;73.32;16.60;;;;;;;18.51;99.61;95296.56;5130438;27;20031;-75
2023/06/25 03:41:16;;;;;;;91.72;17.75;;;;;;;18.11;100.00;95279.91;5132548;27;20038;-75
2023/06/25 03:43:41;;;;;;;34.03;16.15;;;;;;;18.10;100.00;95259.53;5132089;27;20027;-75
2023/06/25 03:46:07;;;;;;;27.42;15.18;;;;;;;18.56;100.00;95306.34;5130341;27;20023;-76
2023/06/25 03:48:32;;;;;;;31.35;15.35;;;;;;;18.72;100.00;95286.72;5131689;27;20096;-76
2023/06/25 03:50:58;;;;;;;27.80;15.25;;;;;;;19.11;100.00;95311.69;5130241;27;20079;-76
2023/06/25 03:53:25;;;;;;;22.30;14.43;;;;;;;19.08;100.00;95305.06;5130135;27;20098;-76
2023/06/25 03:55:50;;;;;;;30.95;15.15;;;;;;;19.12;100.00;95276.44;5131950;27;20035;-76
2023/06/25 03:58:16;;;;;;;25.40;13.40;;;;;;;19.42;99.73;95301.41;5131281;27;20035;-76
2023/06/25 04:00:41;;;;;;;23.52;14.35;;;;;;;19.54;99.42;95295.34;5130117;27;20422;-76
2023/06/25 04:03:07;;;;;;;22.30;13.68;;;;;;;19.59;98.30;95282.50;5132005;27;20111;-76
2023/06/25 04:05:32;;;;;;;25.80;13.00;;;;;;;19.55;98.22;95253.88;5129483;27;20083;-76
2023/06/25 04:07:58;;;;;;;28.05;15.07;;;;;;;19.57;98.76;95241.69;5131836;27;20023;-76
2023/06/25 04:10:23;;;;;;;23.85;13.70;;;;;;;19.67;98.21;95245.09;5130115;27;20031;-76
2023/06/25 04:12:49;;;;;;;21.08;13.98;;;;;;;19.92;97.17;95282.53;5130018;27;20574;-77
2023/06/25 04:15:14;;;;;;;20.33;12.68;;;;;;;19.39;96.67;95178.34;5133384;27;20019;-76
2023/06/25 04:17:40;;;;;;;24.90;13.23;;;;;;;20.02;96.28;95267.91;5133425;27;20118;-76
2023/06/25 04:20:06;;;;;;;22.65;13.38;;;;;;;20.04;96.03;95261.06;5151878;27;20069;-76
2023/06/25 04:22:33;;;;;;;20.95;12.60;;;;;;;19.98;95.59;95237.38;5133322;27;20050;-76
2023/06/25 04:24:59;;;;;;;22.25;13.65;;;;;;;20.18;95.82;95249.22;5132784;27;20035;-76
2023/06/25 04:27:24;;;;;;;25.65;13.80;;;;;;;20.06;95.98;95225.75;5152127;27;20027;-76
2023/06/25 04:29:50;;;;;;;22.45;13.93;;;;;;;20.20;95.67;95247.00;5152166;27;20030;-77
2023/06/25 04:32:15;;;;;;;23.98;14.52;;;;;;;20.21;95.63;95249.34;5151355;27;20045;-76
2023/06/25 04:34:41;;;;;;;24.77;14.05;;;;;;;20.05;94.71;95229.56;5151555;27;20038;-76
2023/06/25 04:37:06;;;;;;;26.65;14.05;;;;;;;20.20;94.76;95247.78;5133058;27;20030;-76
2023/06/25 04:39:32;;;;;;;23.95;12.98;;;;;;;20.19;93.67;95253.50;5151993;27;20030;-76
2023/06/25 04:41:57;;;;;;;27.02;14.13;;;;;;;20.17;93.09;95244.94;5151921;27;20105;-76
2023/06/25 04:44:24;;;;;;;21.73;12.85;;;;;;;20.08;92.62;95242.34;5151511;27;20130;-76
2023/06/25 04:46:49;;;;;;;25.33;12.55;;;;;;;20.38;93.28;95281.50;5132549;27;20031;-76
2023/06/25 04:49:15;;;;;;;21.48;12.05;;;;;;;20.17;92.89;95237.66;5132987;27;20130;-77
2023/06/25 04:51:45;;;;;;;17.42;11.10;;;;;;;20.24;92.54;95251.38;5151888;27;20039;-76
2023/06/25 04:54:10;;;;;;;21.52;12.68;;;;;;;20.38;92.69;95272.63;5132707;27;20034;-76
2023/06/25 04:56:36;;;;;;;19.75;11.82;;;;;;;20.55;92.25;95285.94;5132302;27;20034;-76
2023/06/25 04:59:01;;;;;;;17.70;11.07;;;;;;;20.49;92.12;95268.41;5132830;27;20474;-77
2023/06/25 05:01:27;;;;;;;18.60;11.45;;;;;;;20.33;91.20;95230.56;5111927;27;20031;-76
2023/06/25 05:03:52;;;;;;;18.52;11.38;;;;;;;20.56;91.66;95271.34;5128816;27;20091;-76
2023/06/25 05:06:17;;;;;;;20.45;11.15;;;;;;;20.50;91.43;95255.72;5109472;28;20051;-77
2023/06/25 05:08:43;;;;;;;16.90;11.27;;;;;;;20.22;91.25;95205.13;5124964;27;20111;-77
2023/06/25 05:11:08;;;;;;;23.48;11.77;;;;;;;20.44;91.30;95230.91;5130394;27;20108;-77
2023/06/25 05:13:35;;;;;;;21.15;12.20;;;;;;;20.09;90.66;95184.69;5151292;27;20043;-77
2023/06/25 05:16:01;;;;;;;21.75;13.35;;;;;;;20.59;91.06;95253.72;5130678;27;20034;-76
2023/06/25 05:18:26;;;;;;;18.33;11.00;;;;;;;20.64;90.39;95248.91;5132185;27;20098;-77
2023/06/25 05:20:51;;;;;;;20.90;11.65;;;;;;;20.58;89.82;95236.78;5132355;27;20178;-77
2023/06/25 05:23:17;;;;;;;19.13;11.95;;;;;;;20.52;89.23;95229.25;5150874;27;20417;-77
2023/06/25 05:25:42;;;;;;;19.23;11.00;;;;;;;20.23;89.41;95178.97;5151161;27;20120;-77
2023/06/25 05:28:08;;;;;;;19.33;10.98;;;;;;;20.54;89.56;95202.75;5150759;27;20031;-77
2023/06/25 05:30:33;;;;;;;19.67;10.52;;;;;;;20.44;89.03;95190.50;5132416;27;20042;-77
2023/06/25 05:32:59;;;;;;;18.63;11.10;;;;;;;20.95;88.91;95253.75;5150963;27;20102;-77
2023/06/25 05:35:26;;;;;;;20.30;10.05;;;;;;;20.77;88.91;95212.75;5132105;27;20026;-77
2023/06/25 05:37:51;;;;;;;16.05;10.30;;;;;;;20.98;88.49;95244.22;5131775;27;20610;-77
2023/06/25 05:40:17;;;;;;;14.63;8.75;;;;;;;21.11;87.65;95254.66;5132269;27;20027;-77
2023/06/25 05:42:43;;;;;;;14.95;9.32;;;;;;;21.06;87.64;95245.97;5151122;27;20035;-77
2023/06/25 05:45:09;;;;;;;16.55;8.93;;;;;;;21.09;88.02;95250.72;5131987;27;20026;-77
2023/06/25 05:47:34;;;;;;;16.02;9.15;;;;;;;21.17;87.54;95245.22;5131522;27;20026;-77
2023/06/25 05:50:00;;;;;;;15.18;8.80;;;;;;;21.28;86.87;95259.06;5151036;27;20084;-77
2023/06/25 05:52:26;;;;;;;16.65;8.15;;;;;;;21.22;86.44;95238.03;5150610;27;20391;-77
2023/06/25 05:54:51;;;;;;;13.88;8.82;;;;;;;21.46;86.24;95263.06;5142284;27;20114;-77
2023/06/25 05:57:17;;;;;;;17.00;8.02;;;;;;;21.46;85.32;95257.66;5132368;27;20023;-77
2023/06/25 05:59:42;;;;;;;16.10;7.85;;;;;;;21.39;85.37;95246.66;5150658;27;20458;-77
2023/06/25 06:02:08;;;;;;;11.90;7.53;;;;;;;21.52;84.95;95277.09;5132257;27;20061;-77
2023/06/25 06:04:34;;;;;;;16.58;8.27;;;;;;;21.50;83.74;95258.56;5131995;27;20324;-77
2023/06/25 06:07:00;;;;;;;14.75;8.07;;;;;;;21.58;84.52;95272.28;5150796;27;20079;-77
2023/06/25 06:09:25;;;;;;;11.75;7.80;;;;;;;21.59;84.41;95263.06;5131240;27;20059;-77
2023/06/25 06:11:50;;;;;;;10.38;7.28;;;;;;;21.53;84.17;95254.38;5150563;27;20054;-77
2023/06/25 06:14:16;;;;;;;10.63;7.25;;;;;;;21.56;83.80;95246.41;5132048;27;20045;-77
2023/06/25 06:16:42;;;;;;;10.88;7.40;;;;;;;21.80;83.27;95271.75;5131687;27;20485;-76
2023/06/25 06:19:07;;;;;;;11.38;7.35;;;;;;;21.83;83.47;95274.53;5150074;27;20187;-76
2023/06/25 06:21:32;;;;;;;11.90;6.88;;;;;;;21.84;83.36;95262.63;5131743;27;20039;-77
2023/06/25 06:23:58;;;;;;;11.98;7.80;;;;;;;21.84;82.77;95259.94;5131999;27;20030;-76
2023/06/25 06:26:23;;;;;;;14.82;7.43;;;;;;;21.97;82.36;95268.78;5124713;28;20024;-77
2023/06/25 06:28:49;;;;;;;11.82;7.55;;;;;;;21.91;80.82;95265.53;5129810;27;20023;-77
2023/06/25 06:31:14;;;;;;;14.48;7.82;;;;;;;21.95;79.83;95263.72;5154499;27;20035;-77
2023/06/25 06:33:40;;;;;;;13.02;7.30;;;;;;;21.59;79.04;95234.13;5136088;27;20035;-77
2023/06/25 06:36:05;;;;;;;9.80;7.30;;;;;;;21.95;79.22;95266.44;5154838;27;20496;-77
2023/06/25 06:38:30;;;;;;;11.60;6.82;;;;;;;22.01;78.53;95266.19;5135646;27;20031;-78
2023/06/25 06:40:57;;;;;;;11.77;6.65;;;;;;;21.90;77.45;95255.84;5124275;27;20046;-77
2023/06/25 06:43:23;;;;;;;12.32;7.38;;;;;;;22.14;78.32;95268.50;5115206;27;20049;-77
2023/06/25 06:45:48;;;;;;;14.05;7.93;;;;;;;22.19;78.21;95262.09;5125504;27;20416;-77
2023/06/25 06:48:14;;;;;;;12.63;7.80;;;;;;;22.27;78.62;95261.16;5134587;27;20788;-77
2023/06/25 06:50:39;;;;;;;10.35;7.25;;;;;;;22.42;78.89;95265.00;5135933;27;20424;-80
2023/06/25 06:53:05;;;;;;;10.45;7.50;;;;;;;21.96;78.66;95178.09;5135679;27;20026;-78
2023/06/25 06:55:32;;;;;;;11.45;7.05;;;;;;;22.54;78.12;95249.50;5154461;27;20386;-78
2023/06/25 06:57:58;;;;;;;11.50;6.63;;;;;;;22.62;77.49;95253.94;5154040;27;20034;-78
2023/06/25 07:00:23;;;;;;;11.63;6.70;;;;;;;22.56;77.25;95233.72;5153540;27;20045;-78
2023/06/25 07:02:48;;;;;;;9.93;6.68;;;;;;;22.53;76.64;95217.41;5154144;27;20033;-78
2023/06/25 07:05:14;;;;;;;12.73;7.10;;;;;;;22.65;77.45;95234.34;5153609;27;20060;-78
2023/06/25 07:07:41;;;;;;;10.77;5.93;;;;;;;22.85;77.27;95251.47;5154033;27;20023;-78
2023/06/25 07:10:07;;;;;;;8.40;6.07;;;;;;;22.75;77.04;95224.94;5135055;27;20125;-78
2023/06/25 07:12:33;;;;;;;10.43;5.95;;;;;;;22.92;76.54;95250.84;5153914;27;20141;-78
2023/06/25 07:14:59;;;;;;;8.48;5.35;;;;;;;22.81;76.60;95231.66;5135053;27;20038;-78
2023/06/25 07:17:24;;;;;;;8.88;5.75;;;;;;;22.71;76.05;95207.84;5135095;27;20633;-78
2023/06/25 07:19:50;;;;;;;8.20;5.82;;;;;;;22.81;75.16;95233.59;5134804;27;20564;-78
2023/06/25 07:22:16;;;;;;;11.30;6.97;;;;;;;23.01;75.37;95240.63;5134751;27;20058;-78
2023/06/25 07:24:42;;;;;;;10.43;6.03;;;;;;;23.07;75.62;95250.81;5135015;27;20532;-78
2023/06/25 07:27:07;;;;;;;10.07;6.00;;;;;;;22.70;74.45;95208.97;5153817;27;20109;-78
2023/06/25 07:29:33;;;;;;;9.30;4.97;;;;;;;22.86;73.96;95220.59;5134899;27;20035;-78
2023/06/25 07:31:58;;;;;;;7.82;4.93;;;;;;;22.96;72.47;95228.16;5152696;27;20489;-78
2023/06/25 07:34:24;;;;;;;7.20;5.22;;;;;;;22.95;72.28;95228.53;5132765;27;20107;-78
2023/06/25 07:36:49;;;;;;;19.08;5.80;;;;;;;22.38;72.18;95139.81;5130874;27;20035;-78
2023/06/25 07:39:33;;;;;;;7.20;4.35;;;;;;;23.03;71.84;95249.97;5130057;27;20035;-79
2023/06/25 07:41:58;;;;;;;9.73;6.35;;;;;;;22.70;70.19;95206.25;5131990;27;20065;-78
2023/06/25 07:44:24;;;;;;;11.85;6.38;;;;;;;23.17;70.65;95268.47;5109258;27;20074;-78
2023/06/25 07:46:49;;;;;;;10.65;6.95;;;;;;;23.16;72.64;95255.28;5153140;27;20046;-78
2023/06/25 07:49:15;;;;;;;18.52;7.38;;;;;;;22.91;74.23;95209.50;5134399;27;20038;-78
2023/06/25 07:51:44;;;;;;;12.68;7.28;;;;;;;23.25;75.01;95251.25;5153046;27;20034;-78
2023/06/25 07:54:09;;;;;;;14.85;7.68;;;;;;;23.06;75.25;95218.72;5124762;27;20034;-78
2023/06/25 07:56:35;;;;;;;14.30;8.23;;;;;;;22.68;73.50;95225.53;5123452;27;20429;-78
2023/06/25 07:59:00;;;;;;;15.48;7.30;;;;;;;22.81;74.75;95228.19;5149477;27;20087;-78
2023/06/25 08:01:25;;;;;;;14.05;8.50;;;;;;;23.02;74.07;95229.47;5133971;27;20041;-78
2023/06/25 08:03:51;;;;;;;19.13;8.77;;;;;;;23.15;73.88;95229.34;5134362;27;20125;-78
2023/06/25 08:06:16;;;;;;;16.98;7.93;;;;;;;23.24;74.47;95246.97;5133848;27;20497;-78
2023/06/25 08:08:42;;;;;;;10.15;7.68;;;;;;;23.33;73.55;95236.75;5134009;27;20031;-78
2023/06/25 08:11:07;;;;;;;13.18;8.30;;;;;;;23.35;72.75;95239.06;5152370;27;20055;-78
2023/06/25 08:13:32;;;;;;;14.77;8.20;;;;;;;22.65;72.18;95190.31;5152567;27;20061;-78
2023/06/25 08:15:58;;;;;;;11.52;8.13;;;;;;;23.14;71.61;95231.28;5133923;27;20046;-78
2023/06/25 08:18:23;;;;;;;17.55;8.02;;;;;;;22.93;72.01;95223.44;5144057;27;20401;-78
2023/06/25 08:20:49;;;;;;;13.75;6.60;;;;;;;22.96;70.42;95238.97;5133799;27;20026;-78
2023/06/25 08:23:14;;;;;;;14.15;6.57;;;;;;;22.74;69.45;95206.34;5151933;27;20045;-78
2023/06/25 08:25:40;;;;;;;15.90;7.13;;;;;;;22.92;71.50;95230.00;5133965;27;20509;-78
2023/06/25 08:28:05;;;;;;;11.45;6.13;;;;;;;23.07;69.97;95237.31;5150941;27;20033;-78
2023/06/25 08:30:30;;;;;;;12.40;7.03;;;;;;;22.76;70.43;95204.88;5130365;27;20027;-78
2023/06/25 08:32:56;;;;;;;11.85;6.72;;;;;;;23.16;70.11;95220.09;5148051;27;20035;-78
2023/06/25 08:35:21;;;;;;;8.45;5.55;;;;;;;23.38;70.22;95217.53;5152824;27;20046;-78
2023/06/25 08:37:47;;;;;;;6.07;4.82;;;;;;;23.12;69.51;95201.06;5133716;27;20042;-78
2023/06/25 08:40:12;;;;;;;8.73;4.68;;;;;;;23.00;65.44;95220.13;5151884;27;20821;-78
2023/06/25 08:42:41;;;;;;;6.32;4.43;;;;;;;23.28;66.14;95212.66;5132951;27;20099;-78
2023/06/25 08:45:07;;;;;;;11.82;5.85;;;;;;;23.34;65.91;95240.25;5151773;27;20161;-78
2023/06/25 08:47:39;;;;;;;8.43;4.78;;;;;;;23.39;65.13;95232.63;5133418;27;20031;-78
2023/06/25 08:50:06;;;;;;;5.88;4.93;;;;;;;23.38;66.62;95214.03;5132867;27;20488;-78
2023/06/25 08:52:33;;;;;;;5.68;4.53;;;;;;;23.62;64.61;95232.75;5151714;27;20083;-78
2023/06/25 08:54:59;;;;;;;7.10;4.15;;;;;;;23.27;64.94;95197.53;5129392;27;20191;-78
2023/06/25 08:57:25;;;;;;;7.97;4.10;;;;;;;23.52;63.12;95222.47;5129588;27;20039;-78
2023/06/25 08:59:51;;;;;;;9.75;4.32;;;;;;;23.48;61.41;95224.34;5129534;27;20057;-78
2023/06/25 09:02:16;;;;;;;7.53;4.28;;;;;;;23.35;60.83;95184.97;5131129;27;20031;-78
2023/06/25 09:04:43;;;;;;;7.28;4.47;;;;;;;23.32;63.18;95182.97;5130262;27;20035;-78
2023/06/25 09:07:12;;;;;;;10.15;4.40;;;;;;;23.66;62.01;95216.56;5131260;27;20465;-78
2023/06/25 09:09:37;;;;;;;7.63;4.53;;;;;;;23.64;61.97;95203.41;5130677;27;20031;-78
2023/06/25 09:12:03;;;;;;;6.35;3.97;;;;;;;23.91;61.61;95204.31;5128899;27;20058;-78
2023/06/25 09:14:31;;;;;;;5.40;4.43;;;;;;;23.85;61.42;95184.88;5128979;27;20088;-78
2023/06/25 09:16:57;;;;;;;7.38;3.75;;;;;;;24.07;61.32;95209.66;5129128;27;20403;-78
2023/06/25 09:19:23;;;;;;;7.65;4.03;;;;;;;23.80;60.79;95166.19;5129273;27;20092;-78
2023/06/25 09:21:49;;;;;;;6.70;3.70;;;;;;;24.34;61.57;95213.28;5130648;27;20035;-78
2023/06/25 09:24:16;;;;;;;5.10;3.95;;;;;;;24.71;59.08;95208.91;5128651;27;20782;-78
2023/06/25 09:26:53;;;;;;;5.82;4.32;;;;;;;24.77;59.17;95166.78;5130556;27;20106;-78
2023/06/25 09:29:21;;;;;;;7.53;4.93;;;;;;;25.06;59.44;95169.94;5129057;27;20045;-78
2023/06/25 09:31:48;;;;;;;7.80;3.85;;;;;;;25.18;59.77;95151.50;5129108;27;20335;-78
2023/06/25 09:34:16;;;;;;;7.93;4.78;;;;;;;25.21;57.61;95186.06;5130061;27;20034;-78
2023/06/25 09:36:43;;;;;;;8.65;4.18;;;;;;;24.99;58.81;95184.97;5128908;27;20078;-78
2023/06/25 09:39:10;;;;;;;6.95;4.22;;;;;;;24.52;59.04;95160.16;5130470;27;20031;-78
2023/06/25 09:41:38;;;;;;;6.40;4.40;;;;;;;24.84;58.14;95147.91;5129162;28;20558;-78
2023/06/25 09:44:05;;;;;;;9.10;4.78;;;;;;;25.17;58.57;95163.53;5128650;28;20043;-78
2023/06/25 09:46:39;;;;;;;10.63;4.30;;;;;;;24.60;58.69;95168.06;5128266;28;20180;-78
2023/06/25 09:49:04;;;;;;;5.97;4.43;;;;;;;24.79;58.40;95144.72;5130151;27;20035;-78
2023/06/25 09:51:48;;;;;;;10.98;4.63;;;;;;;25.06;58.23;95148.22;5125288;27;20087;-78
2023/06/25 09:54:15;;;;;;;6.95;3.53;;;;;;;25.26;57.60;95117.88;5093421;28;20036;-78
2023/06/25 09:56:44;;;;;;;7.28;4.30;;;;;;;25.46;56.47;95170.13;5129820;27;20049;-78
2023/06/25 09:59:10;;;;;;;6.93;3.90;;;;;;;25.15;57.20;95132.47;5128575;28;20047;-78
2023/06/25 10:01:37;;;;;;;6.80;4.22;;;;;;;25.55;56.40;95167.13;5129995;27;20091;-78
2023/06/25 10:04:02;;;;;;;6.05;3.80;;;;;;;25.85;55.30;95151.59;5132276;27;20409;-78
2023/06/25 10:06:28;;;;;;;5.72;3.80;;;;;;;25.84;54.88;95092.22;5132463;27;20027;-78
2023/06/25 10:08:55;;;;;;;7.25;3.85;;;;;;;26.48;54.58;95148.75;5134024;27;20112;-78
2023/06/25 10:11:20;;;;;;;7.18;4.63;;;;;;;26.16;54.11;95146.88;5141297;27;20505;-78
2023/06/25 10:13:46;;;;;;;7.75;4.28;;;;;;;26.44;54.15;95136.28;5154494;27;20038;-78
2023/06/25 10:16:18;;;;;;;7.30;4.10;;;;;;;26.10;54.72;95119.25;5133370;27;20088;-78
2023/06/25 10:18:45;;;;;;;7.45;4.70;;;;;;;26.12;53.57;95130.53;5126975;27;20129;-78
2023/06/25 10:21:18;;;;;;;8.32;4.90;;;;;;;26.53;52.34;95142.19;5134324;27;20434;-78
2023/06/25 10:23:53;;;;;;;7.50;4.20;;;;;;;27.02;52.33;95139.06;5135776;27;20045;-77
2023/06/25 10:26:18;;;;;;;9.60;4.53;;;;;;;27.54;50.38;95128.91;5147162;27;20053;-78
2023/06/25 10:28:50;;;;;;;8.57;4.30;;;;;;;28.35;48.62;95136.53;5121329;27;20691;-78
2023/06/25 10:31:16;;;;;;;7.63;4.32;;;;;;;28.84;46.80;95100.28;5132288;27;20069;-78
2023/06/25 10:33:45;;;;;;;6.70;4.07;;;;;;;29.28;45.78;95090.84;5133811;27;20061;-78
2023/06/25 10:36:11;;;;;;;7.70;4.72;;;;;;;30.17;44.18;95108.44;5130179;27;20035;-78
2023/06/25 10:38:38;;;;;;;7.22;4.00;;;;;;;30.42;42.13;95102.00;5118830;27;20092;-78
2023/06/25 10:41:03;;;;;;;6.05;4.50;;;;;;;30.68;42.58;95104.16;5133606;27;20042;-78
2023/06/25 10:43:29;;;;;;;5.97;4.55;;;;;;;30.45;42.36;95092.97;5146767;27;20030;-78
2023/06/25 10:45:58;;;;;;;7.70;4.43;;;;;;;30.19;43.26;95094.34;5135458;27;20041;-78
2023/06/25 10:48:24;;;;;;;6.65;4.53;;;;;;;29.11;43.84;95074.13;5135064;27;20505;-78
2023/06/25 10:50:54;;;;;;;7.85;4.32;;;;;;;29.71;43.50;95086.78;5153649;27;20026;-78
2023/06/25 10:53:22;;;;;;;6.93;3.88;;;;;;;29.79;43.46;95093.78;5154369;27;20106;-78
2023/06/25 10:55:50;;;;;;;6.00;4.60;;;;;;;29.48;43.66;95079.09;5153964;27;20548;-78
2023/06/25 10:58:20;;;;;;;7.20;4.60;;;;;;;29.89;44.58;95082.03;5153403;27;20035;-78
2023/06/25 11:00:53;;;;;;;7.43;3.67;;;;;;;29.90;43.07;95069.91;5153485;27;20087;-78
2023/06/25 11:03:19;;;;;;;8.55;3.40;;;;;;;29.36;43.89;95073.28;5134481;27;20035;-78
2023/06/25 11:05:47;;;;;;;7.22;4.53;;;;;;;29.18;44.83;95057.72;5153708;27;20531;-78
2023/06/25 11:08:13;;;;;;;5.28;4.10;;;;;;;29.23;44.01;95072.91;5134419;27;20027;-78
2023/06/25 11:10:39;;;;;;;6.97;3.80;;;;;;;28.90;44.90;95057.81;5152937;27;20038;-78
2023/06/25 11:13:11;;;;;;;7.72;4.07;;;;;;;28.21;45.75;95041.88;5153010;27;20087;-78
2023/06/25 11:15:40;;;;;;;5.03;3.75;;;;;;;28.21;45.05;95044.59;5134403;27;20030;-78
2023/06/25 11:18:07;;;;;;;9.93;3.95;;;;;;;28.55;45.11;95041.44;5134371;27;20133;-78
2023/06/25 11:20:33;;;;;;;3.88;3.42;;;;;;;28.10;45.17;95019.22;5117262;27;20139;-78